createdAt,value
2022-10-10T00:01:11.564Z,92.11
2022-10-10T00:04:49.389Z,92.15
2022-10-10T00:08:26.954Z,92.25
2022-10-10T00:12:04.592Z,92.28
2022-10-10T00:15:45.643Z,92.50
2022-10-10T00:19:24.530Z,92.65
2022-10-10T00:23:01.844Z,92.79
2022-10-10T00:26:39.569Z,92.96
2022-10-10T00:30:17.108Z,92.88
2022-10-10T00:33:54.918Z,92.84
2022-10-10T00:37:33.518Z,92.75
2022-10-10T00:41:11.189Z,92.72
2022-10-10T00:45:26.554Z,92.79
2022-10-10T00:49:06.709Z,92.84
2022-10-10T00:52:43.415Z,92.86
2022-10-10T00:56:26.293Z,92.92
2022-10-10T01:00:04.778Z,93.07
2022-10-10T01:03:41.790Z,92.98
2022-10-10T01:07:44.069Z,92.99
2022-10-10T01:11:50.130Z,93.06
2022-10-10T01:15:55.605Z,93.07
2022-10-10T01:19:34.944Z,93.06
2022-10-10T01:23:32.403Z,93.04
2022-10-10T01:27:31.875Z,93.01
2022-10-10T01:31:15.115Z,92.93
2022-10-10T01:35:20.878Z,92.90
2022-10-10T01:39:13.733Z,92.87
2022-10-10T01:42:56.118Z,92.93
2022-10-10T01:46:33.233Z,92.95
2022-10-10T01:50:15.473Z,92.91
2022-10-10T01:54:16.413Z,92.86
2022-10-10T01:58:26.569Z,92.96
2022-10-10T02:02:08.408Z,93.06
2022-10-10T02:05:53.015Z,93.02
2022-10-10T02:09:41.190Z,92.94
2022-10-10T02:13:18.762Z,92.95
2022-10-10T02:16:55.993Z,93.02
2022-10-10T02:20:32.873Z,93.01
2022-10-10T02:24:13.003Z,92.98
2022-10-10T02:28:04.257Z,92.89
2022-10-10T02:31:51.451Z,92.84
2022-10-10T02:35:34.183Z,92.72
2022-10-10T02:39:14.785Z,92.91
2022-10-10T02:42:53.533Z,93.23
2022-10-10T02:46:30.234Z,93.22
2022-10-10T02:50:08.292Z,93.25
2022-10-10T02:53:45.821Z,93.27
2022-10-10T02:57:23.355Z,93.25
2022-10-10T03:01:01.070Z,93.25
2022-10-10T03:04:38.592Z,93.47
2022-10-10T03:08:16.051Z,93.67
2022-10-10T03:11:53.975Z,93.70
2022-10-10T03:15:31.620Z,93.77
2022-10-10T03:19:09.133Z,93.91
2022-10-10T03:22:46.838Z,93.88
2022-10-10T03:26:24.531Z,93.89
2022-10-10T03:30:02.578Z,93.95
2022-10-10T03:33:40.796Z,93.91
2022-10-10T03:37:17.410Z,93.84
2022-10-10T03:40:55.615Z,93.80
2022-10-10T03:44:33.193Z,93.61
2022-10-10T03:48:11.043Z,93.60
2022-10-10T03:51:48.412Z,93.77
2022-10-10T03:55:25.930Z,93.67
2022-10-10T03:59:04.129Z,93.79
2022-10-10T04:02:41.595Z,93.96
2022-10-10T04:06:19.515Z,94.08
2022-10-10T04:09:57.573Z,94.06
2022-10-10T04:13:35.256Z,94.06
2022-10-10T04:17:14.053Z,93.96
2022-10-10T04:20:50.217Z,94.02
2022-10-10T04:24:30.191Z,94.16
2022-10-10T04:28:12.077Z,94.20
2022-10-10T04:31:49.841Z,94.28
2022-10-10T04:35:26.499Z,94.26
2022-10-10T04:39:05.194Z,94.30
2022-10-10T04:42:41.723Z,94.29
2022-10-10T04:46:19.618Z,94.34
2022-10-10T04:49:57.235Z,94.45
2022-10-10T04:53:35.128Z,94.31
2022-10-10T04:57:13.498Z,94.33
2022-10-10T05:00:55.159Z,94.42
2022-10-10T05:04:31.508Z,94.60
2022-10-10T05:08:08.927Z,94.60
2022-10-10T05:11:46.688Z,94.57
2022-10-10T05:15:25.034Z,94.63
2022-10-10T05:19:02.068Z,94.71
2022-10-10T05:22:39.753Z,94.78
2022-10-10T05:26:17.586Z,94.74
2022-10-10T05:29:55.928Z,94.81
2022-10-10T05:33:34.894Z,94.59
2022-10-10T05:37:11.775Z,94.33
2022-10-10T05:40:50.488Z,94.07
2022-10-10T05:44:27.568Z,93.96
2022-10-10T05:48:04.483Z,94.10
2022-10-10T05:51:42.278Z,94.06
2022-10-10T05:55:19.744Z,94.07
2022-10-10T05:58:57.474Z,94.29
2022-10-10T06:02:35.625Z,94.09
2022-10-10T06:06:12.859Z,93.90
2022-10-10T06:09:50.818Z,93.68
2022-10-10T06:13:29.488Z,93.52
2022-10-10T06:17:05.533Z,92.87
2022-10-10T06:20:43.487Z,92.99
2022-10-10T06:24:21.235Z,93.18
2022-10-10T06:28:00.264Z,93.47
2022-10-10T06:31:39.853Z,93.32
2022-10-10T06:35:16.973Z,93.25
2022-10-10T06:38:53.373Z,93.35
2022-10-10T06:42:31.759Z,93.39
2022-10-10T06:46:10.394Z,93.25
2022-10-10T06:49:47.734Z,93.15
2022-10-10T06:53:25.359Z,93.16
2022-10-10T06:57:01.790Z,93.11
2022-10-10T07:00:39.412Z,93.07
2022-10-10T07:04:17.299Z,93.03
2022-10-10T07:07:54.913Z,92.42
2022-10-10T07:11:32.698Z,92.37
2022-10-10T07:15:10.199Z,92.14
2022-10-10T07:18:48.869Z,91.60
2022-10-10T07:22:26.520Z,91.28
2022-10-10T07:26:22.724Z,91.30
2022-10-10T07:29:58.729Z,90.81
2022-10-10T07:33:46.080Z,90.20
2022-10-10T07:37:26.705Z,89.64
2022-10-10T07:41:12.209Z,88.61
2022-10-10T07:45:12.813Z,88.37
2022-10-10T07:48:26.208Z,87.68
2022-10-10T07:52:04.353Z,86.33
2022-10-10T07:55:44.238Z,86.44
2022-10-10T07:59:23.103Z,85.77
2022-10-10T08:02:59.482Z,84.85
2022-10-10T08:06:36.909Z,82.72
2022-10-10T08:10:15.642Z,81.57
2022-10-10T08:13:52.620Z,82.44
2022-10-10T08:17:31.055Z,80.60
2022-10-10T08:21:12.451Z,79.83
2022-10-10T08:24:49.589Z,78.83
2022-10-10T08:28:27.252Z,78.39
2022-10-10T08:32:03.671Z,77.63
2022-10-10T08:35:42.653Z,75.96
2022-10-10T08:39:19.367Z,74.21
2022-10-10T08:43:02.483Z,73.53
2022-10-10T08:46:45.003Z,73.01
2022-10-10T08:50:25.936Z,72.95
2022-10-10T08:54:05.833Z,71.34
2022-10-10T08:57:53.645Z,69.87
2022-10-10T09:02:18.593Z,69.14
2022-10-10T09:05:41.655Z,68.63
2022-10-10T09:09:43.399Z,68.36
2022-10-10T09:13:31.373Z,67.20
2022-10-10T09:17:39.953Z,65.94
2022-10-10T09:21:28.200Z,65.36
2022-10-10T09:25:19.492Z,64.48
2022-10-10T09:29:15.355Z,62.87
2022-10-10T09:33:06.259Z,62.53
2022-10-10T09:36:43.124Z,61.55
2022-10-10T09:40:36.774Z,60.70
2022-10-10T09:44:22.442Z,60.15
2022-10-10T09:47:58.619Z,58.47
2022-10-10T09:51:37.192Z,57.45
2022-10-10T09:55:31.078Z,55.58
2022-10-10T09:59:36.070Z,56.43
2022-10-10T10:03:18.226Z,56.52
2022-10-10T10:07:22.394Z,55.86
2022-10-10T10:10:59.912Z,55.84
2022-10-10T10:14:38.916Z,55.66
2022-10-10T10:18:19.853Z,55.48
2022-10-10T10:21:57.176Z,54.91
2022-10-10T10:25:38.329Z,54.32
2022-10-10T10:29:34.222Z,53.12
2022-10-10T10:33:38.012Z,53.65
2022-10-10T10:37:23.506Z,52.30
2022-10-10T10:41:20.166Z,53.18
2022-10-10T10:45:10.296Z,53.87
2022-10-10T10:49:00.779Z,51.69
2022-10-10T10:52:49.691Z,52.18
2022-10-10T11:00:47.346Z,51.02
2022-10-10T11:05:19.114Z,49.81
2022-10-10T11:09:31.228Z,49.46
2022-10-10T11:13:30.173Z,46.79
2022-10-10T11:17:48.313Z,45.86
2022-10-10T11:21:27.247Z,46.65
2022-10-10T11:25:14.054Z,44.95
2022-10-10T11:29:08.811Z,44.75
2022-10-10T11:33:14.574Z,44.25
2022-10-10T11:36:56.484Z,43.84
2022-10-10T11:40:56.361Z,43.95
2022-10-10T11:44:40.819Z,42.76
2022-10-10T11:48:33.139Z,42.08
2022-10-10T11:52:35.387Z,42.31
2022-10-10T11:56:26.889Z,43.48
2022-10-10T12:00:07.739Z,43.08
2022-10-10T12:03:45.502Z,42.31
2022-10-10T12:07:31.308Z,42.06
2022-10-10T12:11:13.851Z,41.02
2022-10-10T12:14:56.551Z,41.70
2022-10-10T12:18:53.066Z,41.72
2022-10-10T12:22:33.439Z,42.14
2022-10-10T12:26:15.534Z,42.06
2022-10-10T12:29:57.888Z,41.72
2022-10-10T12:33:34.333Z,41.22
2022-10-10T12:37:33.254Z,42.77
2022-10-10T12:41:25.218Z,43.90
2022-10-10T12:45:02.034Z,43.61
2022-10-10T12:48:39.433Z,42.85
2022-10-10T12:52:33.667Z,41.92
2022-10-10T12:56:13.728Z,40.94
2022-10-10T12:59:50.633Z,39.24
2022-10-10T13:03:34.594Z,39.50
2022-10-10T13:07:17.673Z,38.56
2022-10-10T13:11:12.061Z,37.30
2022-10-10T13:14:49.293Z,36.90
2022-10-10T13:18:35.014Z,35.57
2022-10-10T13:22:11.484Z,35.27
2022-10-10T13:25:49.054Z,34.81
2022-10-10T13:29:35.570Z,34.66
2022-10-10T13:33:19.254Z,33.58
2022-10-10T13:36:58.352Z,33.75
2022-10-10T13:40:35.541Z,33.93
2022-10-10T13:44:17.802Z,33.71
2022-10-10T13:48:01.272Z,33.11
2022-10-10T13:52:02.708Z,33.56
2022-10-10T13:55:40.834Z,34.72
2022-10-10T13:59:19.474Z,33.81
2022-10-10T14:02:56.647Z,33.47
2022-10-10T14:06:34.131Z,34.20
2022-10-10T14:10:17.411Z,36.26
2022-10-10T14:14:07.233Z,34.97
2022-10-10T14:17:44.245Z,34.87
2022-10-10T14:21:21.774Z,35.33
2022-10-10T14:24:59.793Z,37.25
2022-10-10T14:28:40.063Z,39.92
2022-10-10T14:32:17.437Z,41.88
2022-10-10T14:35:56.554Z,43.35
2022-10-10T14:39:36.324Z,44.61
2022-10-10T14:43:14.802Z,46.05
2022-10-10T14:46:52.743Z,47.34
2022-10-10T14:50:41.732Z,47.84
2022-10-10T14:54:19.431Z,49.09
2022-10-10T14:57:57.111Z,49.51
2022-10-10T15:01:33.289Z,50.15
2022-10-10T15:05:13.049Z,50.46
2022-10-10T15:08:50.080Z,50.79
2022-10-10T15:12:27.473Z,51.13
2022-10-10T15:16:06.451Z,51.66
2022-10-10T15:19:42.674Z,52.31
2022-10-10T15:23:20.214Z,52.69
2022-10-10T15:26:58.200Z,53.29
2022-10-10T15:30:39.486Z,53.84
2022-10-10T15:34:19.383Z,54.30
2022-10-10T15:37:59.305Z,55.17
2022-10-10T15:41:36.811Z,55.46
2022-10-10T15:45:16.696Z,56.13
2022-10-10T15:49:02.548Z,56.67
2022-10-10T15:52:39.055Z,57.33
2022-10-10T15:56:18.599Z,57.88
2022-10-10T15:59:55.474Z,58.28
2022-10-10T16:03:36.010Z,59.19
2022-10-10T16:07:26.800Z,59.90
2022-10-10T16:11:07.093Z,60.59
2022-10-10T16:14:43.027Z,61.02
2022-10-10T16:18:21.232Z,62.10
2022-10-10T16:21:59.832Z,62.51
2022-10-10T16:25:36.591Z,63.22
2022-10-10T16:29:18.662Z,64.05
2022-10-10T16:32:55.410Z,64.59
2022-10-10T16:36:35.138Z,65.02
2022-10-10T16:40:12.888Z,65.84
2022-10-10T16:43:50.321Z,65.87
2022-10-10T16:47:27.299Z,66.41
2022-10-10T16:51:07.550Z,66.99
2022-10-10T16:54:47.782Z,67.56
2022-10-10T16:58:31.864Z,67.83
2022-10-10T17:02:12.221Z,68.26
2022-10-10T17:05:48.949Z,68.63
2022-10-10T17:09:26.632Z,69.12
2022-10-10T17:13:04.594Z,69.15
2022-10-10T17:17:10.562Z,69.56
2022-10-10T17:20:43.569Z,70.16
2022-10-10T17:24:20.092Z,70.44
2022-10-10T17:27:58.172Z,69.91
2022-10-10T17:31:35.123Z,70.23
2022-10-10T17:35:12.857Z,70.65
2022-10-10T17:38:51.289Z,70.75
2022-10-10T17:42:28.472Z,70.91
2022-10-10T17:46:34.193Z,70.99
2022-10-10T17:50:13.393Z,71.04
2022-10-10T17:53:51.174Z,71.14
2022-10-10T17:57:28.528Z,71.26
2022-10-10T18:01:06.218Z,71.35
2022-10-10T18:04:45.087Z,71.65
2022-10-10T18:08:22.533Z,71.83
2022-10-10T18:11:59.092Z,72.07
2022-10-10T18:15:39.216Z,72.31
2022-10-10T18:19:18.951Z,72.68
2022-10-10T18:22:55.812Z,72.80
2022-10-10T18:26:35.265Z,73.04
2022-10-10T18:30:12.382Z,73.31
2022-10-10T18:33:51.168Z,73.60
2022-10-10T18:37:29.082Z,73.66
2022-10-10T18:41:08.697Z,73.87
2022-10-10T18:44:45.537Z,74.10
2022-10-10T18:48:24.565Z,74.21
2022-10-10T18:52:03.293Z,74.44
2022-10-10T18:55:40.088Z,74.62
2022-10-10T18:59:21.955Z,74.64
2022-10-10T19:02:58.496Z,74.91
2022-10-10T19:06:38.585Z,75.05
2022-10-10T19:10:14.871Z,75.14
2022-10-10T19:13:55.596Z,75.27
2022-10-10T19:17:36.203Z,75.44
2022-10-10T19:21:13.154Z,75.42
2022-10-10T19:24:54.392Z,75.58
2022-10-10T19:28:32.431Z,75.73
2022-10-10T19:32:10.213Z,76.04
2022-10-10T19:35:49.867Z,76.28
2022-10-10T19:39:31.447Z,76.46
2022-10-10T19:43:07.918Z,76.66
2022-10-10T19:46:45.800Z,76.82
2022-10-10T19:50:23.504Z,77.16
2022-10-10T19:54:01.073Z,77.38
2022-10-10T19:57:38.534Z,77.56
2022-10-10T20:01:18.039Z,77.77
2022-10-10T20:04:55.574Z,77.92
2022-10-10T20:08:32.277Z,78.22
2022-10-10T20:12:09.967Z,78.54
2022-10-10T20:15:52.117Z,78.65
2022-10-10T20:19:48.129Z,78.95
2022-10-10T20:23:06.992Z,79.10
2022-10-10T20:26:45.114Z,79.30
2022-10-10T20:30:23.482Z,79.27
2022-10-10T20:34:01.818Z,79.37
2022-10-10T20:37:37.995Z,79.55
2022-10-10T20:41:16.489Z,79.80
2022-10-10T20:44:54.841Z,80.00
2022-10-10T20:48:32.599Z,80.10
2022-10-10T20:52:09.493Z,80.23
2022-10-10T20:55:47.058Z,80.31
2022-10-10T20:59:24.790Z,80.35
2022-10-10T21:03:02.602Z,80.42
2022-10-10T21:06:42.818Z,80.48
2022-10-10T21:10:19.934Z,80.46
2022-10-10T21:14:01.027Z,80.40
2022-10-10T21:17:39.390Z,80.39
2022-10-10T21:21:16.276Z,80.28
2022-10-10T21:24:54.253Z,80.10
2022-10-10T21:28:32.742Z,80.11
2022-10-10T21:32:09.118Z,80.03
2022-10-10T21:35:51.253Z,79.94
2022-10-10T21:39:29.183Z,79.83
2022-10-10T21:43:06.803Z,79.78
2022-10-10T21:46:43.005Z,79.91
2022-10-10T21:50:21.552Z,79.89
2022-10-10T21:54:00.492Z,80.11
2022-10-10T21:57:36.890Z,80.21
2022-10-10T22:01:17.640Z,80.19
2022-10-10T22:04:54.944Z,80.40
2022-10-10T22:08:31.814Z,80.45
2022-10-10T22:12:09.342Z,80.56
2022-10-10T22:15:47.093Z,80.59
2022-10-10T22:19:24.919Z,80.58
2022-10-10T22:23:02.316Z,80.61
2022-10-10T22:26:41.973Z,80.68
2022-10-10T22:30:18.407Z,80.71
2022-10-10T22:33:56.200Z,80.72
2022-10-10T22:37:34.235Z,80.69
2022-10-10T22:41:12.795Z,80.83
2022-10-10T22:44:50.312Z,80.75
2022-10-10T22:48:27.772Z,80.92
2022-10-10T22:52:09.809Z,80.90
2022-10-10T22:55:47.155Z,80.78
2022-10-10T22:59:25.329Z,80.80
2022-10-10T23:03:03.295Z,80.89
2022-10-10T23:06:40.516Z,80.90
2022-10-10T23:10:17.360Z,80.96
2022-10-10T23:13:55.909Z,80.94
2022-10-10T23:17:37.298Z,80.85
2022-10-10T23:21:35.594Z,80.90
2022-10-10T23:25:12.195Z,80.81
2022-10-10T23:28:51.541Z,80.74
2022-10-10T23:32:32.595Z,80.72
2022-10-10T23:36:13.656Z,80.65
2022-10-10T23:39:50.331Z,80.80
2022-10-10T23:43:27.775Z,80.79
2022-10-10T23:47:05.594Z,80.79
2022-10-10T23:50:43.817Z,80.98
2022-10-10T23:54:21.074Z,81.05
2022-10-10T23:58:03.211Z,80.95
